Marysville, KS

1:14 PM CDT on May 24, 2017 (GMT -0500)
N0NB | | Change Station
Active Advisory: Flood Warning Active Notice: Public Information Statement

Elev 1318 ft 39.91 °N, 96.77 °W | Updated 9 seconds ago

Overcast
Overcast
63.9 °F
Feels Like 63.9 °F
N
2.0
Wind Variable Wind from WNW
Gusts 6.0 mph

Today
High -- | Low -- °F
--% Chance of Precip.
Yesterday
High -- | Low -- °F
Precip. -- in
Pressure 29.75 in
Visibility 10.0 miles
Clouds Mostly Cloudy 4100 ft
Mostly Cloudy 5000 ft
Dew Point 50 °F
Humidity 61%
Rainfall 0.00 in
Snow Depth Not available.
6:04 AM 8:42 PM
Waning Crescent, 2% visible
METAR KBIE 241755Z AUTO 36007KT 340V040 10SM BKN041 BKN050 17/08 A2975 RMK AO2 T01710080 10178 20085
Pressure 29.75 in
Visibility 10.0 miles
Clouds Mostly Cloudy 4100 ft
Mostly Cloudy 5000 ft
Dew Point 50 °F
Humidity 61%
Rainfall 0.00 in
Snow Depth Not available.
6:04 AM 8:42 PM
Waning Crescent, 2% visible
METAR KBIE 241755Z AUTO 36007KT 340V040 10SM BKN041 BKN050 17/08 A2975 RMK AO2 T01710080 10178 20085

Get Your Daily Forecast Email!

Thanks for signing up!

Be on the lookout for a verification email in your inbox.

You'll start receiving severe weather alerts in your inbox..

×

10-Day Weather Forecast

Almanac

Astronomy

May. 24, 2017 Rise Set
Actual Time
Civil Twilight
Nautical Twilight
Astronomical Twilight
Moon
Length of Visible Light
Length of Day
Tomorrow will be .
, % of the Moon is Illuminated

Today's Extremes

State Highs State Lows

Community

WunderPhotos

Category 6

Welcome to Category 6. This is the collective home for Weather Underground's featured writeups by Dr. Jeff Masters (right), Bob Henson (left), Chris Burt, and other regular contributors.

Nearby

Air Quality

  Air Quality AQ Index Pollutant
Not available.

Snow Depth

Station Depth Elevation

Earthquake Activity

City Distance Mag. Time & Date
Minimum magnitude displayed is 2.5.

Coastal Water Temperatures

Place Temperature

Stations

Nearby Weather Stations

Station Location Temp. Windchill Dew Point Humidity Wind Precip. Elev Updated Type
                   

Watches & Warnings

Flood Warning
Issued: 8:08 AM CDT May. 24, 2017 – National Weather Service

The Flood Warning continues for
the big Blue River near Blue Rapids.
* Until late tonight.
* At 7:15 am Wednesday the stage was 26.7 feet.
* Flood stage is 26.0 feet.
* Forecast... the river will continue to fall to below flood stage by
this afternoon.
* Impact... at 26.0 feet... minor lowland flooding occurs from
Marysville to Tuttle Creek Lake.


Lat... Lon 3971 9666 3968 9658 3957 9655 3957 9659 3968 9669